Aviation Digital Data Service (ADDS)

Output produced by METARs form (1328 UTC 24 August 2019)
found at http://www.aviationweather.gov/metar/data/
 
METAR text: VTSP 241300Z 25007KT 150V300 8000 FEW020 SCT100 28/23 Q1012 NOSIG
Conditions at: VTSP (PHUKET INTL AIRP, TH) observed 1300 UTC 24 August 2019
Temperature: 28.0°C (82°F)
Dewpoint: 23.0°C (73°F) [RH = 74%]
Pressure (altimeter): 29.88 inches Hg (1012.0 mb)
Winds: from the WSW (250 degrees) at 8 MPH (7 knots; 3.6 m/s)
Visibility: 5 miles ( 8 km)
Ceiling: at least 12,000 feet AGL
Clouds: few clouds at 2000 feet AGL
scattered clouds at 10000 feet AGL
Weather: no significant weather observed at this time

METAR text: VTSP 241230Z 25007KT 150V290 8000 FEW020 SCT100 28/22 Q1011 NOSIG
Conditions at: VTSP (PHUKET INTL AIRP, TH) observed 1230 UTC 24 August 2019
Temperature: 28.0°C (82°F)
Dewpoint: 22.0°C (72°F) [RH = 70%]
Pressure (altimeter): 29.85 inches Hg (1011.0 mb)
Winds: from the WSW (250 degrees) at 8 MPH (7 knots; 3.6 m/s)
Visibility: 5 miles ( 8 km)
Ceiling: at least 12,000 feet AGL
Clouds: few clouds at 2000 feet AGL
scattered clouds at 10000 feet AGL
Weather: no significant weather observed at this time

METAR text: VTSP 241200Z 27013KT 210V320 9000 SCT018 SCT100 28/23 Q1011 NOSIG
Conditions at: VTSP (PHUKET INTL AIRP, TH) observed 1200 UTC 24 August 2019
Temperature: 28.0°C (82°F)
Dewpoint: 23.0°C (73°F) [RH = 74%]
Pressure (altimeter): 29.85 inches Hg (1011.0 mb)
Winds: from the W (270 degrees) at 15 MPH (13 knots; 6.7 m/s)
Visibility: 6 miles ( 9 km)
Ceiling: at least 12,000 feet AGL
Clouds: scattered clouds at 1800 feet AGL
scattered clouds at 10000 feet AGL
Weather: no significant weather observed at this time

METAR text: VTSP 241130Z 26013KT 230V300 9999 SCT018 SCT100 28/22 Q1011 NOSIG
Conditions at: VTSP (PHUKET INTL AIRP, TH) observed 1130 UTC 24 August 2019
Temperature: 28.0°C (82°F)
Dewpoint: 22.0°C (72°F) [RH = 70%]
Pressure (altimeter): 29.85 inches Hg (1011.0 mb)
Winds: from the W (260 degrees) at 15 MPH (13 knots; 6.7 m/s)
Visibility: 6 or more miles (10+ km)
Ceiling: at least 12,000 feet AGL
Clouds: scattered clouds at 1800 feet AGL
scattered clouds at 10000 feet AGL
Weather: no significant weather observed at this time

METAR text: VTSP 241100Z 27010KT 230V310 9999 FEW020 SCT100 28/23 Q1010 NOSIG
Conditions at: VTSP (PHUKET INTL AIRP, TH) observed 1100 UTC 24 August 2019
Temperature: 28.0°C (82°F)
Dewpoint: 23.0°C (73°F) [RH = 74%]
Pressure (altimeter): 29.82 inches Hg (1010.0 mb)
Winds: from the W (270 degrees) at 12 MPH (10 knots; 5.1 m/s)
Visibility: 6 or more miles (10+ km)
Ceiling: at least 12,000 feet AGL
Clouds: few clouds at 2000 feet AGL
scattered clouds at 10000 feet AGL
Weather: no significant weather observed at this time

METAR text: VTSP 241030Z 28008KT 240V340 9999 FEW020 SCT100 28/24 Q1010 NOSIG
Conditions at: VTSP (PHUKET INTL AIRP, TH) observed 1030 UTC 24 August 2019
Temperature: 28.0°C (82°F)
Dewpoint: 24.0°C (75°F) [RH = 79%]
Pressure (altimeter): 29.82 inches Hg (1010.0 mb)
Winds: from the W (280 degrees) at 9 MPH (8 knots; 4.1 m/s)
Visibility: 6 or more miles (10+ km)
Ceiling: at least 12,000 feet AGL
Clouds: few clouds at 2000 feet AGL
scattered clouds at 10000 feet AGL
Weather: no significant weather observed at this time

METAR text: VTSP 241000Z 29007KT 210V330 9999 SCT018 BKN100 27/23 Q1010 NOSIG
Conditions at: VTSP (PHUKET INTL AIRP, TH) observed 1000 UTC 24 August 2019
Temperature: 27.0°C (81°F)
Dewpoint: 23.0°C (73°F) [RH = 79%]
Pressure (altimeter): 29.82 inches Hg (1010.0 mb)
Winds: from the WNW (290 degrees) at 8 MPH (7 knots; 3.6 m/s)
Visibility: 6 or more miles (10+ km)
Ceiling: 10000 feet AGL
Clouds: scattered clouds at 1800 feet AGL
broken clouds at 10000 feet AGL
Weather: no significant weather observed at this time

METAR text: VTSP 240930Z 27009KT 9999 -RA SCT018 BKN100 27/23 Q1010 NOSIG
Conditions at: VTSP (PHUKET INTL AIRP, TH) observed 0930 UTC 24 August 2019
Temperature: 27.0°C (81°F)
Dewpoint: 23.0°C (73°F) [RH = 79%]
Pressure (altimeter): 29.82 inches Hg (1010.0 mb)
Winds: from the W (270 degrees) at 10 MPH (9 knots; 4.6 m/s)
Visibility: 6 or more miles (10+ km)
Ceiling: 10000 feet AGL
Clouds: scattered clouds at 1800 feet AGL
broken clouds at 10000 feet AGL
Weather: -RA  (light rain)

METAR text: VTSP 240900Z 27010KT 9999 -DZ SCT018 BKN100 27/23 Q1011 NOSIG
Conditions at: VTSP (PHUKET INTL AIRP, TH) observed 0900 UTC 24 August 2019
Temperature: 27.0°C (81°F)
Dewpoint: 23.0°C (73°F) [RH = 79%]
Pressure (altimeter): 29.85 inches Hg (1011.0 mb)
Winds: from the W (270 degrees) at 12 MPH (10 knots; 5.1 m/s)
Visibility: 6 or more miles (10+ km)
Ceiling: 10000 feet AGL
Clouds: scattered clouds at 1800 feet AGL
broken clouds at 10000 feet AGL
Weather: -DZ  (light drizzle)

METAR text: VTSP 240830Z 28009KT 9999 SCT018 BKN100 27/23 Q1011 NOSIG
Conditions at: VTSP (PHUKET INTL AIRP, TH) observed 0830 UTC 24 August 2019
Temperature: 27.0°C (81°F)
Dewpoint: 23.0°C (73°F) [RH = 79%]
Pressure (altimeter): 29.85 inches Hg (1011.0 mb)
Winds: from the W (280 degrees) at 10 MPH (9 knots; 4.6 m/s)
Visibility: 6 or more miles (10+ km)
Ceiling: 10000 feet AGL
Clouds: scattered clouds at 1800 feet AGL
broken clouds at 10000 feet AGL
Weather: no significant weather observed at this time

METAR text: VTSP 240800Z 29011KT 260V320 9999 SCT018 BKN100 26/23 Q1011 NOSIG
Conditions at: VTSP (PHUKET INTL AIRP, TH) observed 0800 UTC 24 August 2019
Temperature: 26.0°C (79°F)
Dewpoint: 23.0°C (73°F) [RH = 84%]
Pressure (altimeter): 29.85 inches Hg (1011.0 mb)
Winds: from the WNW (290 degrees) at 13 MPH (11 knots; 5.7 m/s)
Visibility: 6 or more miles (10+ km)
Ceiling: 10000 feet AGL
Clouds: scattered clouds at 1800 feet AGL
broken clouds at 10000 feet AGL
Weather: no significant weather observed at this time

METAR text: VTSP 240730Z 27014KT 9000 -RA SCT018 BKN100 25/22 Q1012 RERA NOSIG
Conditions at: VTSP (PHUKET INTL AIRP, TH) observed 0730 UTC 24 August 2019
Temperature: 25.0°C (77°F)
Dewpoint: 22.0°C (72°F) [RH = 83%]
Pressure (altimeter): 29.88 inches Hg (1012.0 mb)
Winds: from the W (270 degrees) at 16 MPH (14 knots; 7.2 m/s)
Visibility: 6 miles ( 9 km)
Ceiling: 10000 feet AGL
Clouds: scattered clouds at 1800 feet AGL
broken clouds at 10000 feet AGL
Weather: -RA  (light rain)

METAR text: VTSP 240700Z 26013KT 230V300 9999 VCSH FEW018TCU SCT020 SCT100 29/23 Q1012 TEMPO FM0710 TL0730 26015G30KT 3000 RA
Conditions at: VTSP (PHUKET INTL AIRP, TH) observed 0700 UTC 24 August 2019
Temperature: 29.0°C (84°F)
Dewpoint: 23.0°C (73°F) [RH = 70%]
Pressure (altimeter): 29.88 inches Hg (1012.0 mb)
Winds: from the W (260 degrees) at 15 MPH (13 knots; 6.7 m/s)
Visibility: 6 or more miles (10+ km)
Ceiling: at least 12,000 feet AGL
Clouds: few clouds at 1800 feet AGL
scattered clouds at 2000 feet AGL
scattered clouds at 10000 feet AGL
Weather: VCSH  (showers in vicinity)

METAR text: VTSP 240630Z 28011KT 9999 SCT020 SCT100 30/23 Q1012 TEMPO FM0710 TL0730 26015G30KT 3000 RA
Conditions at: VTSP (PHUKET INTL AIRP, TH) observed 0630 UTC 24 August 2019
Temperature: 30.0°C (86°F)
Dewpoint: 23.0°C (73°F) [RH = 66%]
Pressure (altimeter): 29.88 inches Hg (1012.0 mb)
Winds: from the W (280 degrees) at 13 MPH (11 knots; 5.7 m/s)
Visibility: 6 or more miles (10+ km)
Ceiling: at least 12,000 feet AGL
Clouds: scattered clouds at 2000 feet AGL
scattered clouds at 10000 feet AGL
Weather: no significant weather observed at this time

METAR text: VTSP 240600Z 27010KT 9999 SCT020 BKN100 29/23 Q1012 NOSIG
Conditions at: VTSP (PHUKET INTL AIRP, TH) observed 0600 UTC 24 August 2019
Temperature: 29.0°C (84°F)
Dewpoint: 23.0°C (73°F) [RH = 70%]
Pressure (altimeter): 29.88 inches Hg (1012.0 mb)
Winds: from the W (270 degrees) at 12 MPH (10 knots; 5.1 m/s)
Visibility: 6 or more miles (10+ km)
Ceiling: 10000 feet AGL
Clouds: scattered clouds at 2000 feet AGL
broken clouds at 10000 feet AGL
Weather: no significant weather observed at this time

METAR text: VTSP 240530Z 26009KT 210V280 9999 FEW020 BKN100 28/23 Q1012 NOSIG
Conditions at: VTSP (PHUKET INTL AIRP, TH) observed 0530 UTC 24 August 2019
Temperature: 28.0°C (82°F)
Dewpoint: 23.0°C (73°F) [RH = 74%]
Pressure (altimeter): 29.88 inches Hg (1012.0 mb)
Winds: from the W (260 degrees) at 10 MPH (9 knots; 4.6 m/s)
Visibility: 6 or more miles (10+ km)
Ceiling: 10000 feet AGL
Clouds: few clouds at 2000 feet AGL
broken clouds at 10000 feet AGL
Weather: no significant weather observed at this time

METAR text: VTSP 240500Z 27010KT 240V300 9999 -RA SCT018 BKN100 26/22 Q1013 NOSIG
Conditions at: VTSP (PHUKET INTL AIRP, TH) observed 0500 UTC 24 August 2019
Temperature: 26.0°C (79°F)
Dewpoint: 22.0°C (72°F) [RH = 79%]
Pressure (altimeter): 29.91 inches Hg (1013.0 mb)
Winds: from the W (270 degrees) at 12 MPH (10 knots; 5.1 m/s)
Visibility: 6 or more miles (10+ km)
Ceiling: 10000 feet AGL
Clouds: scattered clouds at 1800 feet AGL
broken clouds at 10000 feet AGL
Weather: -RA  (light rain)

METAR text: VTSP 240430Z 26018G29KT 9000 -RA SCT018 BKN100 25/22 Q1014 RERA NOSIG
Conditions at: VTSP (PHUKET INTL AIRP, TH) observed 0430 UTC 24 August 2019
Temperature: 25.0°C (77°F)
Dewpoint: 22.0°C (72°F) [RH = 83%]
Pressure (altimeter): 29.94 inches Hg (1014.0 mb)
Winds: from the W (260 degrees) at 21 MPH (18 knots; 9.3 m/s)
gusting to 33 MPH (29 knots; 14.9 m/s)
Visibility: 6 miles ( 9 km)
Ceiling: 10000 feet AGL
Clouds: scattered clouds at 1800 feet AGL
broken clouds at 10000 feet AGL
Weather: -RA  (light rain)

METAR text: VTSP 240400Z 28009KT 230V320 9999 VCSH FEW018TCU SCT020 30/24 Q1013 TEMPO FM0415 TL0435 26015G30KT 3000 RA
Conditions at: VTSP (PHUKET INTL AIRP, TH) observed 0400 UTC 24 August 2019
Temperature: 30.0°C (86°F)
Dewpoint: 24.0°C (75°F) [RH = 70%]
Pressure (altimeter): 29.91 inches Hg (1013.0 mb)
Winds: from the W (280 degrees) at 10 MPH (9 knots; 4.6 m/s)
Visibility: 6 or more miles (10+ km)
Ceiling: at least 12,000 feet AGL
Clouds: few clouds at 1800 feet AGL
scattered clouds at 2000 feet AGL
Weather: VCSH  (showers in vicinity)

METAR text: VTSP 240330Z 28007KT 250V330 9999 FEW018TCU SCT020 SCT100 30/24 Q1013 TEMPO FM0415 TL0435 26015G30KT 3000 RA
Conditions at: VTSP (PHUKET INTL AIRP, TH) observed 0330 UTC 24 August 2019
Temperature: 30.0°C (86°F)
Dewpoint: 24.0°C (75°F) [RH = 70%]
Pressure (altimeter): 29.91 inches Hg (1013.0 mb)
Winds: from the W (280 degrees) at 8 MPH (7 knots; 3.6 m/s)
Visibility: 6 or more miles (10+ km)
Ceiling: at least 12,000 feet AGL
Clouds: few clouds at 1800 feet AGL
scattered clouds at 2000 feet AGL
scattered clouds at 10000 feet AGL
Weather: no significant weather observed at this time

METAR text: VTSP 240300Z 29007KT 230V340 9999 SCT018 SCT100 29/25 Q1013 NOSIG
Conditions at: VTSP (PHUKET INTL AIRP, TH) observed 0300 UTC 24 August 2019
Temperature: 29.0°C (84°F)
Dewpoint: 25.0°C (77°F) [RH = 79%]
Pressure (altimeter): 29.91 inches Hg (1013.0 mb)
Winds: from the WNW (290 degrees) at 8 MPH (7 knots; 3.6 m/s)
Visibility: 6 or more miles (10+ km)
Ceiling: at least 12,000 feet AGL
Clouds: scattered clouds at 1800 feet AGL
scattered clouds at 10000 feet AGL
Weather: no significant weather observed at this time

METAR text: VTSP 240230Z 29005KT 230V340 9999 SCT018 SCT100 29/24 Q1013 NOSIG
Conditions at: VTSP (PHUKET INTL AIRP, TH) observed 0230 UTC 24 August 2019
Temperature: 29.0°C (84°F)
Dewpoint: 24.0°C (75°F) [RH = 74%]
Pressure (altimeter): 29.91 inches Hg (1013.0 mb)
Winds: from the WNW (290 degrees) at 6 MPH (5 knots; 2.6 m/s)
Visibility: 6 or more miles (10+ km)
Ceiling: at least 12,000 feet AGL
Clouds: scattered clouds at 1800 feet AGL
scattered clouds at 10000 feet AGL
Weather: no significant weather observed at this time

METAR text: VTSP 240200Z 32004KT 250V020 9999 SCT018 SCT100 28/24 Q1013 NOSIG
Conditions at: VTSP (PHUKET INTL AIRP, TH) observed 0200 UTC 24 August 2019
Temperature: 28.0°C (82°F)
Dewpoint: 24.0°C (75°F) [RH = 79%]
Pressure (altimeter): 29.91 inches Hg (1013.0 mb)
Winds: from the NW (320 degrees) at 5 MPH (4 knots; 2.1 m/s)
Visibility: 6 or more miles (10+ km)
Ceiling: at least 12,000 feet AGL
Clouds: scattered clouds at 1800 feet AGL
scattered clouds at 10000 feet AGL
Weather: no significant weather observed at this time

METAR text: VTSP 240130Z 32004KT 280V020 9999 SCT018 SCT100 27/23 Q1013 NOSIG
Conditions at: VTSP (PHUKET INTL AIRP, TH) observed 0130 UTC 24 August 2019
Temperature: 27.0°C (81°F)
Dewpoint: 23.0°C (73°F) [RH = 79%]
Pressure (altimeter): 29.91 inches Hg (1013.0 mb)
Winds: from the NW (320 degrees) at 5 MPH (4 knots; 2.1 m/s)
Visibility: 6 or more miles (10+ km)
Ceiling: at least 12,000 feet AGL
Clouds: scattered clouds at 1800 feet AGL
scattered clouds at 10000 feet AGL
Weather: no significant weather observed at this time

METAR text: VTSP 240100Z 33005KT 280V030 9999 SCT020 27/23 Q1013 NOSIG
Conditions at: VTSP (PHUKET INTL AIRP, TH) observed 0100 UTC 24 August 2019
Temperature: 27.0°C (81°F)
Dewpoint: 23.0°C (73°F) [RH = 79%]
Pressure (altimeter): 29.91 inches Hg (1013.0 mb)
Winds: from the NNW (330 degrees) at 6 MPH (5 knots; 2.6 m/s)
Visibility: 6 or more miles (10+ km)
Ceiling: at least 12,000 feet AGL
Clouds: scattered clouds at 2000 feet AGL
Weather: no significant weather observed at this time

METAR text: VTSP 240030Z VRB02KT 9999 FEW020 26/23 Q1013 NOSIG
Conditions at: VTSP (PHUKET INTL AIRP, TH) observed 0030 UTC 24 August 2019
Temperature: 26.0°C (79°F)
Dewpoint: 23.0°C (73°F) [RH = 84%]
Pressure (altimeter): 29.91 inches Hg (1013.0 mb)
Winds: variable direction winds at 2 MPH (2 knots; 1.0 m/s)
Visibility: 6 or more miles (10+ km)
Ceiling: at least 12,000 feet AGL
Clouds: few clouds at 2000 feet AGL
Weather: no significant weather observed at this time

METAR text: VTSP 240000Z VRB02KT 9999 FEW020 26/22 Q1012 NOSIG
Conditions at: VTSP (PHUKET INTL AIRP, TH) observed 0000 UTC 24 August 2019
Temperature: 26.0°C (79°F)
Dewpoint: 22.0°C (72°F) [RH = 79%]
Pressure (altimeter): 29.88 inches Hg (1012.0 mb)
Winds: variable direction winds at 2 MPH (2 knots; 1.0 m/s)
Visibility: 6 or more miles (10+ km)
Ceiling: at least 12,000 feet AGL
Clouds: few clouds at 2000 feet AGL
Weather: no significant weather observed at this time

METAR text: VTSP 232330Z 30007KT 9999 SCT020 26/22 Q1012 NOSIG
Conditions at: VTSP (PHUKET INTL AIRP, TH) observed 2330 UTC 23 August 2019
Temperature: 26.0°C (79°F)
Dewpoint: 22.0°C (72°F) [RH = 79%]
Pressure (altimeter): 29.88 inches Hg (1012.0 mb)
Winds: from the WNW (300 degrees) at 8 MPH (7 knots; 3.6 m/s)
Visibility: 6 or more miles (10+ km)
Ceiling: at least 12,000 feet AGL
Clouds: scattered clouds at 2000 feet AGL
Weather: no significant weather observed at this time

METAR text: VTSP 232300Z 28007KT 250V330 9000 SCT020 26/23 Q1012 NOSIG
Conditions at: VTSP (PHUKET INTL AIRP, TH) observed 2300 UTC 23 August 2019
Temperature: 26.0°C (79°F)
Dewpoint: 23.0°C (73°F) [RH = 84%]
Pressure (altimeter): 29.88 inches Hg (1012.0 mb)
Winds: from the W (280 degrees) at 8 MPH (7 knots; 3.6 m/s)
Visibility: 6 miles ( 9 km)
Ceiling: at least 12,000 feet AGL
Clouds: scattered clouds at 2000 feet AGL
Weather: no significant weather observed at this time

METAR text: VTSP 232230Z 30010KT 270V330 8000 SCT020 26/23 Q1012 NOSIG
Conditions at: VTSP (PHUKET INTL AIRP, TH) observed 2230 UTC 23 August 2019
Temperature: 26.0°C (79°F)
Dewpoint: 23.0°C (73°F) [RH = 84%]
Pressure (altimeter): 29.88 inches Hg (1012.0 mb)
Winds: from the WNW (300 degrees) at 12 MPH (10 knots; 5.1 m/s)
Visibility: 5 miles ( 8 km)
Ceiling: at least 12,000 feet AGL
Clouds: scattered clouds at 2000 feet AGL
Weather: no significant weather observed at this time

METAR text: VTSP 232200Z 24010G24KT 170V340 8000 -RA SCT018 26/22 Q1012 NOSIG
Conditions at: VTSP (PHUKET INTL AIRP, TH) observed 2200 UTC 23 August 2019
Temperature: 26.0°C (79°F)
Dewpoint: 22.0°C (72°F) [RH = 79%]
Pressure (altimeter): 29.88 inches Hg (1012.0 mb)
Winds: from the WSW (240 degrees) at 12 MPH (10 knots; 5.1 m/s)
gusting to 28 MPH (24 knots; 12.3 m/s)
Visibility: 5 miles ( 8 km)
Ceiling: at least 12,000 feet AGL
Clouds: scattered clouds at 1800 feet AGL
Weather: -RA  (light rain)

METAR text: VTSP 232130Z 26010KT 210V290 8000 -RA SCT020 27/23 Q1011 NOSIG
Conditions at: VTSP (PHUKET INTL AIRP, TH) observed 2130 UTC 23 August 2019
Temperature: 27.0°C (81°F)
Dewpoint: 23.0°C (73°F) [RH = 79%]
Pressure (altimeter): 29.85 inches Hg (1011.0 mb)
Winds: from the W (260 degrees) at 12 MPH (10 knots; 5.1 m/s)
Visibility: 5 miles ( 8 km)
Ceiling: at least 12,000 feet AGL
Clouds: scattered clouds at 2000 feet AGL
Weather: -RA  (light rain)

METAR text: VTSP 232100Z 28014KT 8000 -RA SCT018 27/23 Q1011 NOSIG
Conditions at: VTSP (PHUKET INTL AIRP, TH) observed 2100 UTC 23 August 2019
Temperature: 27.0°C (81°F)
Dewpoint: 23.0°C (73°F) [RH = 79%]
Pressure (altimeter): 29.85 inches Hg (1011.0 mb)
Winds: from the W (280 degrees) at 16 MPH (14 knots; 7.2 m/s)
Visibility: 5 miles ( 8 km)
Ceiling: at least 12,000 feet AGL
Clouds: scattered clouds at 1800 feet AGL
Weather: -RA  (light rain)

METAR text: VTSP 232030Z 26012KT 210V290 8000 SCT020 28/23 Q1011 NOSIG
Conditions at: VTSP (PHUKET INTL AIRP, TH) observed 2030 UTC 23 August 2019
Temperature: 28.0°C (82°F)
Dewpoint: 23.0°C (73°F) [RH = 74%]
Pressure (altimeter): 29.85 inches Hg (1011.0 mb)
Winds: from the W (260 degrees) at 14 MPH (12 knots; 6.2 m/s)
Visibility: 5 miles ( 8 km)
Ceiling: at least 12,000 feet AGL
Clouds: scattered clouds at 2000 feet AGL
Weather: no significant weather observed at this time

METAR text: VTSP 232000Z 25010KT 190V320 8000 -DZ SCT020 28/23 Q1011 NOSIG
Conditions at: VTSP (PHUKET INTL AIRP, TH) observed 2000 UTC 23 August 2019
Temperature: 28.0°C (82°F)
Dewpoint: 23.0°C (73°F) [RH = 74%]
Pressure (altimeter): 29.85 inches Hg (1011.0 mb)
Winds: from the WSW (250 degrees) at 12 MPH (10 knots; 5.1 m/s)
Visibility: 5 miles ( 8 km)
Ceiling: at least 12,000 feet AGL
Clouds: scattered clouds at 2000 feet AGL
Weather: -DZ  (light drizzle)

METAR text: VTSP 231930Z 25007KT 210V310 8000 -DZ SCT020 27/24 Q1012 NOSIG
Conditions at: VTSP (PHUKET INTL AIRP, TH) observed 1930 UTC 23 August 2019
Temperature: 27.0°C (81°F)
Dewpoint: 24.0°C (75°F) [RH = 84%]
Pressure (altimeter): 29.88 inches Hg (1012.0 mb)
Winds: from the WSW (250 degrees) at 8 MPH (7 knots; 3.6 m/s)
Visibility: 5 miles ( 8 km)
Ceiling: at least 12,000 feet AGL
Clouds: scattered clouds at 2000 feet AGL
Weather: -DZ  (light drizzle)

METAR text: VTSP 231900Z 24007KT 160V290 8000 -RA SCT020 27/24 Q1012 NOSIG
Conditions at: VTSP (PHUKET INTL AIRP, TH) observed 1900 UTC 23 August 2019
Temperature: 27.0°C (81°F)
Dewpoint: 24.0°C (75°F) [RH = 84%]
Pressure (altimeter): 29.88 inches Hg (1012.0 mb)
Winds: from the WSW (240 degrees) at 8 MPH (7 knots; 3.6 m/s)
Visibility: 5 miles ( 8 km)
Ceiling: at least 12,000 feet AGL
Clouds: scattered clouds at 2000 feet AGL
Weather: -RA  (light rain)

METAR text: VTSP 231830Z 22004KT 150V300 8000 -RA SCT018 27/24 Q1012 NOSIG
Conditions at: VTSP (PHUKET INTL AIRP, TH) observed 1830 UTC 23 August 2019
Temperature: 27.0°C (81°F)
Dewpoint: 24.0°C (75°F) [RH = 84%]
Pressure (altimeter): 29.88 inches Hg (1012.0 mb)
Winds: from the SW (220 degrees) at 5 MPH (4 knots; 2.1 m/s)
Visibility: 5 miles ( 8 km)
Ceiling: at least 12,000 feet AGL
Clouds: scattered clouds at 1800 feet AGL
Weather: -RA  (light rain)

METAR text: VTSP 231800Z VRB02KT 8000 -RA SCT018 26/24 Q1013 NOSIG
Conditions at: VTSP (PHUKET INTL AIRP, TH) observed 1800 UTC 23 August 2019
Temperature: 26.0°C (79°F)
Dewpoint: 24.0°C (75°F) [RH = 89%]
Pressure (altimeter): 29.91 inches Hg (1013.0 mb)
Winds: variable direction winds at 2 MPH (2 knots; 1.0 m/s)
Visibility: 5 miles ( 8 km)
Ceiling: at least 12,000 feet AGL
Clouds: scattered clouds at 1800 feet AGL
Weather: -RA  (light rain)

METAR text: VTSP 231730Z VRB05KT 8000 -DZ SCT018 26/24 Q1013 NOSIG
Conditions at: VTSP (PHUKET INTL AIRP, TH) observed 1730 UTC 23 August 2019
Temperature: 26.0°C (79°F)
Dewpoint: 24.0°C (75°F) [RH = 89%]
Pressure (altimeter): 29.91 inches Hg (1013.0 mb)
Winds: variable direction winds at 6 MPH (5 knots; 2.6 m/s)
Visibility: 5 miles ( 8 km)
Ceiling: at least 12,000 feet AGL
Clouds: scattered clouds at 1800 feet AGL
Weather: -DZ  (light drizzle)

METAR text: VTSP 231700Z 33007G17KT 280V020 7000 -RA SCT018 26/24 Q1013 NOSIG
Conditions at: VTSP (PHUKET INTL AIRP, TH) observed 1700 UTC 23 August 2019
Temperature: 26.0°C (79°F)
Dewpoint: 24.0°C (75°F) [RH = 89%]
Pressure (altimeter): 29.91 inches Hg (1013.0 mb)
Winds: from the NNW (330 degrees) at 8 MPH (7 knots; 3.6 m/s)
gusting to 20 MPH (17 knots; 8.7 m/s)
Visibility: 4 miles ( 7 km)
Ceiling: at least 12,000 feet AGL
Clouds: scattered clouds at 1800 feet AGL
Weather: -RA  (light rain)

METAR text: VTSP 231630Z VRB02KT 8000 FEW020 26/23 Q1014 NOSIG
Conditions at: VTSP (PHUKET INTL AIRP, TH) observed 1630 UTC 23 August 2019
Temperature: 26.0°C (79°F)
Dewpoint: 23.0°C (73°F) [RH = 84%]
Pressure (altimeter): 29.94 inches Hg (1014.0 mb)
Winds: variable direction winds at 2 MPH (2 knots; 1.0 m/s)
Visibility: 5 miles ( 8 km)
Ceiling: at least 12,000 feet AGL
Clouds: few clouds at 2000 feet AGL
Weather: no significant weather observed at this time

METAR text: VTSP 231600Z VRB01KT 8000 FEW020 25/23 Q1014 NOSIG
Conditions at: VTSP (PHUKET INTL AIRP, TH) observed 1600 UTC 23 August 2019
Temperature: 25.0°C (77°F)
Dewpoint: 23.0°C (73°F) [RH = 89%]
Pressure (altimeter): 29.94 inches Hg (1014.0 mb)
Winds: variable direction winds at 1 MPH (1 knots; 0.5 m/s)
Visibility: 5 miles ( 8 km)
Ceiling: at least 12,000 feet AGL
Clouds: few clouds at 2000 feet AGL
Weather: no significant weather observed at this time

METAR text: VTSP 231530Z VRB02KT 8000 FEW020 26/23 Q1014 NOSIG
Conditions at: VTSP (PHUKET INTL AIRP, TH) observed 1530 UTC 23 August 2019
Temperature: 26.0°C (79°F)
Dewpoint: 23.0°C (73°F) [RH = 84%]
Pressure (altimeter): 29.94 inches Hg (1014.0 mb)
Winds: variable direction winds at 2 MPH (2 knots; 1.0 m/s)
Visibility: 5 miles ( 8 km)
Ceiling: at least 12,000 feet AGL
Clouds: few clouds at 2000 feet AGL
Weather: no significant weather observed at this time

METAR text: VTSP 231500Z 30006KT 8000 SCT020 26/23 Q1014 NOSIG
Conditions at: VTSP (PHUKET INTL AIRP, TH) observed 1500 UTC 23 August 2019
Temperature: 26.0°C (79°F)
Dewpoint: 23.0°C (73°F) [RH = 84%]
Pressure (altimeter): 29.94 inches Hg (1014.0 mb)
Winds: from the WNW (300 degrees) at 7 MPH (6 knots; 3.1 m/s)
Visibility: 5 miles ( 8 km)
Ceiling: at least 12,000 feet AGL
Clouds: scattered clouds at 2000 feet AGL
Weather: no significant weather observed at this time

METAR text: VTSP 231430Z 28007KT 260V320 7000 -RA SCT020 26/23 Q1014 NOSIG
Conditions at: VTSP (PHUKET INTL AIRP, TH) observed 1430 UTC 23 August 2019
Temperature: 26.0°C (79°F)
Dewpoint: 23.0°C (73°F) [RH = 84%]
Pressure (altimeter): 29.94 inches Hg (1014.0 mb)
Winds: from the W (280 degrees) at 8 MPH (7 knots; 3.6 m/s)
Visibility: 4 miles ( 7 km)
Ceiling: at least 12,000 feet AGL
Clouds: scattered clouds at 2000 feet AGL
Weather: -RA  (light rain)

METAR text: VTSP 231400Z 30011KT 6000 -RA SCT018 25/23 Q1013 RERA NOSIG
Conditions at: VTSP (PHUKET INTL AIRP, TH) observed 1400 UTC 23 August 2019
Temperature: 25.0°C (77°F)
Dewpoint: 23.0°C (73°F) [RH = 89%]
Pressure (altimeter): 29.91 inches Hg (1013.0 mb)
Winds: from the WNW (300 degrees) at 13 MPH (11 knots; 5.7 m/s)
Visibility: 4 miles ( 6 km)
Ceiling: at least 12,000 feet AGL
Clouds: scattered clouds at 1800 feet AGL
Weather: -RA  (light rain)

METAR text: VTSP 231330Z 30013KT 260V340 5000 RA SCT018 26/23 Q1013 BECMG TL1345 8000 -RA
Conditions at: VTSP (PHUKET INTL AIRP, TH) observed 1330 UTC 23 August 2019
Temperature: 26.0°C (79°F)
Dewpoint: 23.0°C (73°F) [RH = 84%]
Pressure (altimeter): 29.91 inches Hg (1013.0 mb)
Winds: from the WNW (300 degrees) at 15 MPH (13 knots; 6.7 m/s)
Visibility: 3 miles ( 5 km)
Ceiling: at least 12,000 feet AGL
Clouds: scattered clouds at 1800 feet AGL
Weather: RA  (moderate rain)

METAR text: VTSP 231300Z 30004KT 270V330 8000 FEW020 27/23 Q1012 TEMPO FM1310 TL1330 27015G30KT 5000 TSRA
Conditions at: VTSP (PHUKET INTL AIRP, TH) observed 1300 UTC 23 August 2019
Temperature: 27.0°C (81°F)
Dewpoint: 23.0°C (73°F) [RH = 79%]
Pressure (altimeter): 29.88 inches Hg (1012.0 mb)
Winds: from the WNW (300 degrees) at 5 MPH (4 knots; 2.1 m/s)
Visibility: 5 miles ( 8 km)
Ceiling: at least 12,000 feet AGL
Clouds: few clouds at 2000 feet AGL
Weather: no significant weather observed at this time

METAR text: VTSP 231230Z 29004KT 260V330 8000 FEW020 27/24 Q1012 TEMPO FM1310 TL1330 27015G30KT 5000 TSRA
Conditions at: VTSP (PHUKET INTL AIRP, TH) observed 1230 UTC 23 August 2019
Temperature: 27.0°C (81°F)
Dewpoint: 24.0°C (75°F) [RH = 84%]
Pressure (altimeter): 29.88 inches Hg (1012.0 mb)
Winds: from the WNW (290 degrees) at 5 MPH (4 knots; 2.1 m/s)
Visibility: 5 miles ( 8 km)
Ceiling: at least 12,000 feet AGL
Clouds: few clouds at 2000 feet AGL
Weather: no significant weather observed at this time

METAR text: VTSP 231200Z 29005KT 9000 FEW020 28/23 Q1012 NOSIG
Conditions at: VTSP (PHUKET INTL AIRP, TH) observed 1200 UTC 23 August 2019
Temperature: 28.0°C (82°F)
Dewpoint: 23.0°C (73°F) [RH = 74%]
Pressure (altimeter): 29.88 inches Hg (1012.0 mb)
Winds: from the WNW (290 degrees) at 6 MPH (5 knots; 2.6 m/s)
Visibility: 6 miles ( 9 km)
Ceiling: at least 12,000 feet AGL
Clouds: few clouds at 2000 feet AGL
Weather: no significant weather observed at this time

METAR text: VTSP 231130Z 29007KT 9999 FEW020 28/23 Q1011 NOSIG
Conditions at: VTSP (PHUKET INTL AIRP, TH) observed 1130 UTC 23 August 2019
Temperature: 28.0°C (82°F)
Dewpoint: 23.0°C (73°F) [RH = 74%]
Pressure (altimeter): 29.85 inches Hg (1011.0 mb)
Winds: from the WNW (290 degrees) at 8 MPH (7 knots; 3.6 m/s)
Visibility: 6 or more miles (10+ km)
Ceiling: at least 12,000 feet AGL
Clouds: few clouds at 2000 feet AGL
Weather: no significant weather observed at this time

METAR text: VTSP 231100Z 29006KT 250V330 9999 FEW020 28/23 Q1011 NOSIG
Conditions at: VTSP (PHUKET INTL AIRP, TH) observed 1100 UTC 23 August 2019
Temperature: 28.0°C (82°F)
Dewpoint: 23.0°C (73°F) [RH = 74%]
Pressure (altimeter): 29.85 inches Hg (1011.0 mb)
Winds: from the WNW (290 degrees) at 7 MPH (6 knots; 3.1 m/s)
Visibility: 6 or more miles (10+ km)
Ceiling: at least 12,000 feet AGL
Clouds: few clouds at 2000 feet AGL
Weather: no significant weather observed at this time

METAR text: VTSP 231030Z 27007KT 240V310 9999 FEW020 29/23 Q1010 NOSIG
Conditions at: VTSP (PHUKET INTL AIRP, TH) observed 1030 UTC 23 August 2019
Temperature: 29.0°C (84°F)
Dewpoint: 23.0°C (73°F) [RH = 70%]
Pressure (altimeter): 29.82 inches Hg (1010.0 mb)
Winds: from the W (270 degrees) at 8 MPH (7 knots; 3.6 m/s)
Visibility: 6 or more miles (10+ km)
Ceiling: at least 12,000 feet AGL
Clouds: few clouds at 2000 feet AGL
Weather: no significant weather observed at this time

METAR text: VTSP 231000Z 28008KT 9999 FEW020 29/23 Q1010 NOSIG
Conditions at: VTSP (PHUKET INTL AIRP, TH) observed 1000 UTC 23 August 2019
Temperature: 29.0°C (84°F)
Dewpoint: 23.0°C (73°F) [RH = 70%]
Pressure (altimeter): 29.82 inches Hg (1010.0 mb)
Winds: from the W (280 degrees) at 9 MPH (8 knots; 4.1 m/s)
Visibility: 6 or more miles (10+ km)
Ceiling: at least 12,000 feet AGL
Clouds: few clouds at 2000 feet AGL
Weather: no significant weather observed at this time

METAR text: VTSP 230930Z 27008KT 240V310 9999 FEW020 29/23 Q1010 NOSIG
Conditions at: VTSP (PHUKET INTL AIRP, TH) observed 0930 UTC 23 August 2019
Temperature: 29.0°C (84°F)
Dewpoint: 23.0°C (73°F) [RH = 70%]
Pressure (altimeter): 29.82 inches Hg (1010.0 mb)
Winds: from the W (270 degrees) at 9 MPH (8 knots; 4.1 m/s)
Visibility: 6 or more miles (10+ km)
Ceiling: at least 12,000 feet AGL
Clouds: few clouds at 2000 feet AGL
Weather: no significant weather observed at this time

METAR text: VTSP 230900Z 27007KT 230V320 9999 FEW020 30/23 Q1010 NOSIG
Conditions at: VTSP (PHUKET INTL AIRP, TH) observed 0900 UTC 23 August 2019
Temperature: 30.0°C (86°F)
Dewpoint: 23.0°C (73°F) [RH = 66%]
Pressure (altimeter): 29.82 inches Hg (1010.0 mb)
Winds: from the W (270 degrees) at 8 MPH (7 knots; 3.6 m/s)
Visibility: 6 or more miles (10+ km)
Ceiling: at least 12,000 feet AGL
Clouds: few clouds at 2000 feet AGL
Weather: no significant weather observed at this time

METAR text: VTSP 230830Z 27005KT 230V320 9999 FEW020 30/23 Q1010 NOSIG
Conditions at: VTSP (PHUKET INTL AIRP, TH) observed 0830 UTC 23 August 2019
Temperature: 30.0°C (86°F)
Dewpoint: 23.0°C (73°F) [RH = 66%]
Pressure (altimeter): 29.82 inches Hg (1010.0 mb)
Winds: from the W (270 degrees) at 6 MPH (5 knots; 2.6 m/s)
Visibility: 6 or more miles (10+ km)
Ceiling: at least 12,000 feet AGL
Clouds: few clouds at 2000 feet AGL
Weather: no significant weather observed at this time

METAR text: VTSP 230800Z 27005KT 220V330 9999 FEW020 SCT100 30/22 Q1011 NOSIG
Conditions at: VTSP (PHUKET INTL AIRP, TH) observed 0800 UTC 23 August 2019
Temperature: 30.0°C (86°F)
Dewpoint: 22.0°C (72°F) [RH = 62%]
Pressure (altimeter): 29.85 inches Hg (1011.0 mb)
Winds: from the W (270 degrees) at 6 MPH (5 knots; 2.6 m/s)
Visibility: 6 or more miles (10+ km)
Ceiling: at least 12,000 feet AGL
Clouds: few clouds at 2000 feet AGL
scattered clouds at 10000 feet AGL
Weather: no significant weather observed at this time

METAR text: VTSP 230730Z 28005KT 250V340 9999 FEW020 SCT100 29/23 Q1011 NOSIG
Conditions at: VTSP (PHUKET INTL AIRP, TH) observed 0730 UTC 23 August 2019
Temperature: 29.0°C (84°F)
Dewpoint: 23.0°C (73°F) [RH = 70%]
Pressure (altimeter): 29.85 inches Hg (1011.0 mb)
Winds: from the W (280 degrees) at 6 MPH (5 knots; 2.6 m/s)
Visibility: 6 or more miles (10+ km)
Ceiling: at least 12,000 feet AGL
Clouds: few clouds at 2000 feet AGL
scattered clouds at 10000 feet AGL
Weather: no significant weather observed at this time

METAR text: VTSP 230700Z 26004KT 230V320 9999 FEW020 SCT100 30/24 Q1012 NOSIG
Conditions at: VTSP (PHUKET INTL AIRP, TH) observed 0700 UTC 23 August 2019
Temperature: 30.0°C (86°F)
Dewpoint: 24.0°C (75°F) [RH = 70%]
Pressure (altimeter): 29.88 inches Hg (1012.0 mb)
Winds: from the W (260 degrees) at 5 MPH (4 knots; 2.1 m/s)
Visibility: 6 or more miles (10+ km)
Ceiling: at least 12,000 feet AGL
Clouds: few clouds at 2000 feet AGL
scattered clouds at 10000 feet AGL
Weather: no significant weather observed at this time

METAR text: VTSP 230630Z VRB02KT 9999 FEW015 SCT020 BKN100 28/23 Q1012 NOSIG
Conditions at: VTSP (PHUKET INTL AIRP, TH) observed 0630 UTC 23 August 2019
Temperature: 28.0°C (82°F)
Dewpoint: 23.0°C (73°F) [RH = 74%]
Pressure (altimeter): 29.88 inches Hg (1012.0 mb)
Winds: variable direction winds at 2 MPH (2 knots; 1.0 m/s)
Visibility: 6 or more miles (10+ km)
Ceiling: 10000 feet AGL
Clouds: few clouds at 1500 feet AGL
scattered clouds at 2000 feet AGL
broken clouds at 10000 feet AGL
Weather: no significant weather observed at this time

METAR text: VTSP 230600Z 08004KT 020V120 9999 FEW015 SCT020 BKN100 27/23 Q1012 NOSIG
Conditions at: VTSP (PHUKET INTL AIRP, TH) observed 0600 UTC 23 August 2019
Temperature: 27.0°C (81°F)
Dewpoint: 23.0°C (73°F) [RH = 79%]
Pressure (altimeter): 29.88 inches Hg (1012.0 mb)
Winds: from the E (80 degrees) at 5 MPH (4 knots; 2.1 m/s)
Visibility: 6 or more miles (10+ km)
Ceiling: 10000 feet AGL
Clouds: few clouds at 1500 feet AGL
scattered clouds at 2000 feet AGL
broken clouds at 10000 feet AGL
Weather: no significant weather observed at this time

METAR text: VTSP 230530Z 11003KT 070V170 9999 FEW015 SCT020 BKN100 27/23 Q1013 NOSIG
Conditions at: VTSP (PHUKET INTL AIRP, TH) observed 0530 UTC 23 August 2019
Temperature: 27.0°C (81°F)
Dewpoint: 23.0°C (73°F) [RH = 79%]
Pressure (altimeter): 29.91 inches Hg (1013.0 mb)
Winds: from the ESE (110 degrees) at 3 MPH (3 knots; 1.5 m/s)
Visibility: 6 or more miles (10+ km)
Ceiling: 10000 feet AGL
Clouds: few clouds at 1500 feet AGL
scattered clouds at 2000 feet AGL
broken clouds at 10000 feet AGL
Weather: no significant weather observed at this time

METAR text: VTSP 230500Z VRB01KT 9999 FEW015 SCT020 BKN100 27/23 Q1013 NOSIG
Conditions at: VTSP (PHUKET INTL AIRP, TH) observed 0500 UTC 23 August 2019
Temperature: 27.0°C (81°F)
Dewpoint: 23.0°C (73°F) [RH = 79%]
Pressure (altimeter): 29.91 inches Hg (1013.0 mb)
Winds: variable direction winds at 1 MPH (1 knots; 0.5 m/s)
Visibility: 6 or more miles (10+ km)
Ceiling: 10000 feet AGL
Clouds: few clouds at 1500 feet AGL
scattered clouds at 2000 feet AGL
broken clouds at 10000 feet AGL
Weather: no significant weather observed at this time

METAR text: VTSP 230430Z VRB03KT 9000 -RA FEW015 SCT020 BKN100 26/23 Q1014 NOSIG
Conditions at: VTSP (PHUKET INTL AIRP, TH) observed 0430 UTC 23 August 2019
Temperature: 26.0°C (79°F)
Dewpoint: 23.0°C (73°F) [RH = 84%]
Pressure (altimeter): 29.94 inches Hg (1014.0 mb)
Winds: variable direction winds at 3 MPH (3 knots; 1.5 m/s)
Visibility: 6 miles ( 9 km)
Ceiling: 10000 feet AGL
Clouds: few clouds at 1500 feet AGL
scattered clouds at 2000 feet AGL
broken clouds at 10000 feet AGL
Weather: -RA  (light rain)

METAR text: VTSP 230400Z 06003KT 330V120 9000 -RA FEW018TCU BKN100 25/23 Q1014 NOSIG
Conditions at: VTSP (PHUKET INTL AIRP, TH) observed 0400 UTC 23 August 2019
Temperature: 25.0°C (77°F)
Dewpoint: 23.0°C (73°F) [RH = 89%]
Pressure (altimeter): 29.94 inches Hg (1014.0 mb)
Winds: from the ENE (60 degrees) at 3 MPH (3 knots; 1.5 m/s)
Visibility: 6 miles ( 9 km)
Ceiling: 10000 feet AGL
Clouds: few clouds at 1800 feet AGL
broken clouds at 10000 feet AGL
Weather: -RA  (light rain)

METAR text: VTSP 230330Z VRB02KT 9000 -RA SCT018 BKN100 25/22 Q1014 NOSIG
Conditions at: VTSP (PHUKET INTL AIRP, TH) observed 0330 UTC 23 August 2019
Temperature: 25.0°C (77°F)
Dewpoint: 22.0°C (72°F) [RH = 83%]
Pressure (altimeter): 29.94 inches Hg (1014.0 mb)
Winds: variable direction winds at 2 MPH (2 knots; 1.0 m/s)
Visibility: 6 miles ( 9 km)
Ceiling: 10000 feet AGL
Clouds: scattered clouds at 1800 feet AGL
broken clouds at 10000 feet AGL
Weather: -RA  (light rain)

METAR text: VTSP 230300Z 31006KT 260V350 6000 -RA SCT018 BKN100 24/22 Q1014 RERA NOSIG
Conditions at: VTSP (PHUKET INTL AIRP, TH) observed 0300 UTC 23 August 2019
Temperature: 24.0°C (75°F)
Dewpoint: 22.0°C (72°F) [RH = 89%]
Pressure (altimeter): 29.94 inches Hg (1014.0 mb)
Winds: from the NW (310 degrees) at 7 MPH (6 knots; 3.1 m/s)
Visibility: 4 miles ( 6 km)
Ceiling: 10000 feet AGL
Clouds: scattered clouds at 1800 feet AGL
broken clouds at 10000 feet AGL
Weather: -RA  (light rain)

METAR text: VTSP 230230Z 25006KT 170V330 1500 +RA SCT018 BKN100 24/22 Q1015 BECMG TL0240 6000 -RA
Conditions at: VTSP (PHUKET INTL AIRP, TH) observed 0230 UTC 23 August 2019
Temperature: 24.0°C (75°F)
Dewpoint: 22.0°C (72°F) [RH = 89%]
Pressure (altimeter): 29.97 inches Hg (1015.0 mb)
Winds: from the WSW (250 degrees) at 7 MPH (6 knots; 3.1 m/s)
Visibility: 0.93 miles (1.50 km)
Ceiling: 10000 feet AGL
Clouds: scattered clouds at 1800 feet AGL
broken clouds at 10000 feet AGL
Weather: +RA  (heavy rain)

METAR text: VTSP 230200Z VRB02KT 9000 3000SW -RA FEW018TCU BKN020 30/24 Q1014 TEMPO TL0220 27015G30KT 3000 TSRA
Conditions at: VTSP (PHUKET INTL AIRP, TH) observed 0200 UTC 23 August 2019
Temperature: 30.0°C (86°F)
Dewpoint: 24.0°C (75°F) [RH = 70%]
Pressure (altimeter): 29.94 inches Hg (1014.0 mb)
Winds: variable direction winds at 2 MPH (2 knots; 1.0 m/s)
Visibility: 6 miles ( 9 km)
Ceiling: 2000 feet AGL
Clouds: few clouds at 1800 feet AGL
broken clouds at 2000 feet AGL
Weather: -RA  (light rain)

METAR text: VTSP 230130Z VRB02KT 9999 VCSH FEW018TCU SCT020 28/24 Q1013 TEMPO FM0200 TL0220 27015G30KT 5000 TSRA
Conditions at: VTSP (PHUKET INTL AIRP, TH) observed 0130 UTC 23 August 2019
Temperature: 28.0°C (82°F)
Dewpoint: 24.0°C (75°F) [RH = 79%]
Pressure (altimeter): 29.91 inches Hg (1013.0 mb)
Winds: variable direction winds at 2 MPH (2 knots; 1.0 m/s)
Visibility: 6 or more miles (10+ km)
Ceiling: at least 12,000 feet AGL
Clouds: few clouds at 1800 feet AGL
scattered clouds at 2000 feet AGL
Weather: VCSH  (showers in vicinity)

Forecast for: VTSP (PHUKET INTL AIRP, TH)
Text: TAF VTSP 241100Z 2412/2518 28008KT 9999 FEW020 BKN100
Forecast period: 1200 UTC 24 August 2019 to 1800 UTC 25 August 2019
Forecast type: FROM: standard forecast or significant change
Winds: from the W (280 degrees) at 9 MPH (8 knots; 4.1 m/s)
Visibility: 6 or more miles 10+ km)
Ceiling: 10000 feet AGL
Clouds: few clouds at 2000 feet AGL
broken clouds at 10000 feet AGL
Weather: no significant weather forecast for this period
Text: TEMPO 2418/2424 26015G30KT 5000 TSRA FEW018CB SCT020 BKN100
Forecast period: 1800 UTC 24 August 2019 to 0000 UTC 25 August 2019
Forecast type: TEMPORARY: The following changes expected for less than half the time period
Winds: from the W (260 degrees) at 17 MPH (15 knots; 7.7 m/s)
gusting to 34 MPH (30 knots; 15.4 m/s)
Visibility: 3 miles (5 km)
Ceiling: 10000 feet AGL
Clouds: few clouds at 1800 feet AGL
scattered clouds at 2000 feet AGL
broken clouds at 10000 feet AGL
Weather: TSRA  (rain associated with thunderstorm(s))
Text: TEMPO 2504/2510 26015G30KT 5000 TSRA FEW018CB SCT020 BKN100
Forecast period: 0400 to 1000 UTC 25 August 2019
Forecast type: TEMPORARY: The following changes expected for less than half the time period
Winds: from the W (260 degrees) at 17 MPH (15 knots; 7.7 m/s)
gusting to 34 MPH (30 knots; 15.4 m/s)
Visibility: 3 miles (5 km)
Ceiling: 10000 feet AGL
Clouds: few clouds at 1800 feet AGL
scattered clouds at 2000 feet AGL
broken clouds at 10000 feet AGL
Weather: TSRA  (rain associated with thunderstorm(s))